createdAt,value
2023-05-15T00:01:27.693Z,28.67
2023-05-15T00:03:55.155Z,24.95
2023-05-15T00:06:22.095Z,25.77
2023-05-15T00:08:48.669Z,29.40
2023-05-15T00:11:15.580Z,34.13
2023-05-15T00:13:42.114Z,23.92
2023-05-15T00:16:09.478Z,27.45
2023-05-15T00:18:36.522Z,24.15
2023-05-15T00:21:03.291Z,27.55
2023-05-15T00:23:29.850Z,25.35
2023-05-15T00:25:56.416Z,29.58
2023-05-15T00:28:23.055Z,29.50
2023-05-15T00:30:49.857Z,28.80
2023-05-15T00:33:16.867Z,28.08
2023-05-15T00:35:43.819Z,26.27
2023-05-15T00:38:10.805Z,28.42
2023-05-15T00:40:38.608Z,30.83
2023-05-15T00:43:06.158Z,24.60
2023-05-15T00:45:33.959Z,22.63
2023-05-15T00:48:01.654Z,27.00
2023-05-15T00:50:29.192Z,36.33
2023-05-15T00:52:55.863Z,26.80
2023-05-15T00:55:22.900Z,23.63
2023-05-15T00:57:52.220Z,20.83
2023-05-15T01:00:20.646Z,23.38
2023-05-15T01:02:47.407Z,31.65
2023-05-15T01:05:14.179Z,23.02
2023-05-15T01:07:56.194Z,22.48
2023-05-15T01:12:54.268Z,30.73
2023-05-15T01:15:21.234Z,30.05
2023-05-15T01:17:47.967Z,24.90
2023-05-15T01:20:18.728Z,27.60
2023-05-15T01:22:53.120Z,32.17
2023-05-15T01:25:37.059Z,31.65
2023-05-15T01:28:08.985Z,30.15
2023-05-15T01:30:38.953Z,35.25
2023-05-15T01:33:24.973Z,27.55
2023-05-15T01:36:12.535Z,26.88
2023-05-15T01:38:42.540Z,29.30
2023-05-15T01:41:49.535Z,33.03
2023-05-15T01:44:22.419Z,30.08
2023-05-15T01:46:52.039Z,32.10
2023-05-15T01:49:20.372Z,29.80
2023-05-15T01:51:51.126Z,29.38
2023-05-15T01:56:47.765Z,30.58
2023-05-15T01:59:16.489Z,27.63
2023-05-15T02:01:44.942Z,27.67
2023-05-15T02:04:13.522Z,29.83
2023-05-15T02:06:41.015Z,27.40
2023-05-15T02:09:10.045Z,27.90
2023-05-15T02:11:37.450Z,28.33
2023-05-15T02:14:05.293Z,28.45
2023-05-15T02:16:31.932Z,32.15
2023-05-15T02:18:58.583Z,33.58
2023-05-15T02:21:25.265Z,28.95
2023-05-15T02:23:51.854Z,32.00
2023-05-15T02:26:35.635Z,27.40
2023-05-15T02:29:06.640Z,28.85
2023-05-15T02:32:05.832Z,30.50
2023-05-15T02:35:06.576Z,27.92
2023-05-15T02:37:37.929Z,31.60
2023-05-15T02:40:07.026Z,32.42
2023-05-15T02:42:35.924Z,31.20
2023-05-15T02:45:03.109Z,26.50
2023-05-15T02:47:30.669Z,30.90
2023-05-15T02:49:57.556Z,26.95
2023-05-15T02:52:24.798Z,28.33
2023-05-15T02:54:51.512Z,27.38
2023-05-15T02:57:19.102Z,27.92
2023-05-15T02:59:45.749Z,29.90
2023-05-15T03:02:12.333Z,30.08
2023-05-15T03:04:39.039Z,39.28
2023-05-15T03:07:05.759Z,34.63
2023-05-15T03:09:32.327Z,33.58
2023-05-15T03:11:58.855Z,31.77
2023-05-15T03:14:25.425Z,30.13
2023-05-15T03:16:52.280Z,47.83
2023-05-15T03:19:18.910Z,42.00
2023-05-15T03:21:45.565Z,41.47
2023-05-15T03:24:12.235Z,39.58
2023-05-15T03:26:40.402Z,39.72
2023-05-15T03:29:06.965Z,42.60
2023-05-15T03:31:33.752Z,42.40
2023-05-15T03:34:00.434Z,38.65
2023-05-15T03:36:27.067Z,49.80
2023-05-15T03:38:53.708Z,46.80
2023-05-15T03:41:21.515Z,49.35
2023-05-15T03:43:48.154Z,50.47
2023-05-15T03:46:18.205Z,46.80
2023-05-15T03:48:44.791Z,47.78
2023-05-15T03:51:11.402Z,50.28
2023-05-15T03:53:38.333Z,59.40
2023-05-15T03:56:05.134Z,55.88
2023-05-15T03:58:34.660Z,55.20
2023-05-15T04:01:01.420Z,53.13
2023-05-15T04:03:27.998Z,46.50
2023-05-15T04:05:54.575Z,47.85
2023-05-15T04:08:21.063Z,48.17
2023-05-15T04:10:47.631Z,46.38
2023-05-15T04:13:14.188Z,46.13
2023-05-15T04:15:40.959Z,47.72
2023-05-15T04:18:07.744Z,44.22
2023-05-15T04:20:34.338Z,45.88
2023-05-15T04:23:01.154Z,49.38
2023-05-15T04:25:27.989Z,42.80
2023-05-15T04:27:54.562Z,46.05
2023-05-15T04:30:21.117Z,45.38
2023-05-15T04:32:47.744Z,41.70
2023-05-15T04:35:15.336Z,45.35
2023-05-15T04:37:42.833Z,34.42
2023-05-15T04:40:10.057Z,39.67
2023-05-15T04:42:39.165Z,38.13
2023-05-15T04:45:07.469Z,35.97
2023-05-15T04:47:34.192Z,43.33
2023-05-15T04:50:00.879Z,35.17
2023-05-15T04:52:27.485Z,35.80
2023-05-15T04:54:55.712Z,37.05
2023-05-15T04:57:22.993Z,45.38
2023-05-15T04:59:49.953Z,46.75
2023-05-15T05:02:16.511Z,40.70
2023-05-15T05:04:44.012Z,41.97
2023-05-15T05:07:10.516Z,40.38
2023-05-15T05:09:39.153Z,41.40
2023-05-15T05:12:07.344Z,41.85
2023-05-15T05:14:34.102Z,36.80
2023-05-15T05:17:00.855Z,42.28
2023-05-15T05:19:28.258Z,41.67
2023-05-15T05:21:55.589Z,44.38
2023-05-15T05:24:22.168Z,38.85
2023-05-15T05:26:48.746Z,41.15
2023-05-15T05:29:15.344Z,36.78
2023-05-15T05:31:41.990Z,37.88
2023-05-15T05:34:09.222Z,38.33
2023-05-15T05:36:36.973Z,43.50
2023-05-15T05:39:04.681Z,37.28
2023-05-15T05:41:31.227Z,37.78
2023-05-15T05:43:57.831Z,35.88
2023-05-15T05:46:24.449Z,38.65
2023-05-15T05:48:51.387Z,41.53
2023-05-15T05:51:18.102Z,37.55
2023-05-15T05:53:44.906Z,38.22
2023-05-15T05:56:11.733Z,40.35
2023-05-15T05:58:38.288Z,43.17
2023-05-15T06:01:05.745Z,45.05
2023-05-15T06:03:32.725Z,42.20
2023-05-15T06:05:59.434Z,46.92
2023-05-15T06:08:26.706Z,46.55
2023-05-15T06:10:53.286Z,44.88
2023-05-15T06:13:20.010Z,43.45
2023-05-15T06:15:47.365Z,49.22
2023-05-15T06:18:14.383Z,47.28
2023-05-15T06:20:42.751Z,39.92
2023-05-15T06:23:09.688Z,44.67
2023-05-15T06:25:36.448Z,53.75
2023-05-15T06:28:03.076Z,49.95
2023-05-15T06:30:29.638Z,49.65
2023-05-15T06:32:56.245Z,44.47
2023-05-15T06:35:25.721Z,41.40
2023-05-15T06:37:53.062Z,39.88
2023-05-15T06:40:20.770Z,41.75
2023-05-15T06:42:47.293Z,42.80
2023-05-15T06:45:13.971Z,44.00
2023-05-15T06:47:40.775Z,45.88
2023-05-15T06:50:07.961Z,44.63
2023-05-15T06:52:34.515Z,42.83
2023-05-15T06:55:01.292Z,39.00
2023-05-15T06:57:27.938Z,43.58
2023-05-15T06:59:54.472Z,42.78
2023-05-15T07:02:21.008Z,43.92
2023-05-15T07:04:47.612Z,43.17
2023-05-15T07:07:14.320Z,42.85
2023-05-15T07:09:41.156Z,44.78
2023-05-15T07:12:08.124Z,38.45
2023-05-15T07:14:34.669Z,38.60
2023-05-15T07:17:01.251Z,36.22
2023-05-15T07:19:27.942Z,37.65
2023-05-15T07:21:54.535Z,39.42
2023-05-15T07:24:21.071Z,41.25
2023-05-15T07:26:58.004Z,32.30
2023-05-15T07:29:26.233Z,35.28
2023-05-15T07:31:53.190Z,34.22
2023-05-15T07:34:19.809Z,34.42
2023-05-15T07:36:46.344Z,31.73
2023-05-15T07:39:13.233Z,37.47
2023-05-15T07:41:39.840Z,43.83
2023-05-15T07:44:06.516Z,44.17
2023-05-15T07:46:34.104Z,42.00
2023-05-15T07:49:00.737Z,43.90
2023-05-15T07:51:27.291Z,47.35
2023-05-15T07:53:54.145Z,50.22
2023-05-15T07:56:21.441Z,47.85
2023-05-15T07:58:48.290Z,47.40
2023-05-15T08:01:14.834Z,46.92
2023-05-15T08:03:41.489Z,40.75
2023-05-15T08:06:08.421Z,42.03
2023-05-15T08:08:34.977Z,44.60
2023-05-15T08:11:01.539Z,43.17
2023-05-15T08:13:28.805Z,48.13
2023-05-15T08:15:55.675Z,44.05
2023-05-15T08:18:22.470Z,47.90
2023-05-15T08:20:49.490Z,42.30
2023-05-15T08:23:16.030Z,45.67
2023-05-15T08:25:42.542Z,41.72
2023-05-15T08:28:10.717Z,41.20
2023-05-15T08:30:37.354Z,37.85
2023-05-15T08:33:04.012Z,38.28
2023-05-15T08:35:30.655Z,40.05
2023-05-15T08:37:58.548Z,41.97
2023-05-15T08:43:03.154Z,36.42
2023-05-15T08:45:30.623Z,35.03
2023-05-15T08:47:59.191Z,32.25
2023-05-15T08:50:26.329Z,30.27
2023-05-15T08:52:58.147Z,31.55
2023-05-15T08:55:25.481Z,32.50
2023-05-15T08:57:54.356Z,29.27
2023-05-15T09:00:22.335Z,35.38
2023-05-15T09:02:49.138Z,34.67
2023-05-15T09:05:15.757Z,29.45
2023-05-15T09:07:44.816Z,27.77
2023-05-15T09:10:13.269Z,24.50
2023-05-15T09:12:44.397Z,25.60
2023-05-15T09:15:17.589Z,22.85
2023-05-15T09:17:45.642Z,23.45
2023-05-15T09:20:28.441Z,22.15
2023-05-15T09:22:56.395Z,20.65
2023-05-15T09:25:44.442Z,18.52
2023-05-15T09:28:25.662Z,17.20
2023-05-15T09:30:57.949Z,15.95
2023-05-15T09:36:03.609Z,17.25
2023-05-15T09:38:33.266Z,17.85
2023-05-15T09:41:05.374Z,20.75
2023-05-15T09:43:39.846Z,21.90
2023-05-15T09:46:08.277Z,22.35
2023-05-15T09:48:35.653Z,21.92
2023-05-15T09:51:02.403Z,22.35
2023-05-15T09:53:29.662Z,21.95
2023-05-15T09:55:56.833Z,21.35
2023-05-15T09:58:23.581Z,21.77
2023-05-15T10:00:50.249Z,22.17
2023-05-15T10:03:21.422Z,23.63
2023-05-15T10:05:48.155Z,22.88
2023-05-15T10:08:15.901Z,25.73
2023-05-15T10:10:43.575Z,22.75
2023-05-15T10:13:11.306Z,23.92
2023-05-15T10:15:39.649Z,19.90
2023-05-15T10:18:07.554Z,22.58
2023-05-15T10:20:35.879Z,19.95
2023-05-15T10:23:04.734Z,21.73
2023-05-15T10:25:52.566Z,24.85
2023-05-15T10:28:20.319Z,23.45
2023-05-15T10:30:48.117Z,24.13
2023-05-15T10:33:15.382Z,25.17
2023-05-15T10:35:42.848Z,22.25
2023-05-15T10:38:11.384Z,24.98
2023-05-15T10:40:39.163Z,23.65
2023-05-15T10:43:06.573Z,23.27
2023-05-15T10:45:35.320Z,23.17
2023-05-15T10:48:03.248Z,23.08
2023-05-15T10:50:30.006Z,22.45
2023-05-15T10:52:56.766Z,23.65
2023-05-15T10:55:23.839Z,25.83
2023-05-15T10:57:50.744Z,25.70
2023-05-15T11:00:23.514Z,22.27
2023-05-15T11:02:53.875Z,26.35
2023-05-15T11:05:20.721Z,25.98
2023-05-15T11:08:26.005Z,25.95
2023-05-15T11:10:53.860Z,27.48
2023-05-15T11:13:20.731Z,27.95
2023-05-15T11:15:48.360Z,26.25
2023-05-15T11:18:15.927Z,26.48
2023-05-15T11:21:02.389Z,26.73
2023-05-15T11:23:29.014Z,26.77
2023-05-15T11:25:58.739Z,29.52
2023-05-15T11:28:29.284Z,28.75
2023-05-15T11:31:06.497Z,27.40
2023-05-15T11:33:33.253Z,30.20
2023-05-15T11:36:01.086Z,29.38
2023-05-15T11:38:28.286Z,28.25
2023-05-15T11:40:58.313Z,29.35
2023-05-15T11:43:29.510Z,28.75
2023-05-15T11:46:08.325Z,29.30
2023-05-15T11:48:41.427Z,28.85
2023-05-15T11:51:24.817Z,27.95
2023-05-15T11:53:53.344Z,26.30
2023-05-15T11:56:24.304Z,26.45
2023-05-15T11:58:54.893Z,29.23
2023-05-15T12:01:21.488Z,29.73
2023-05-15T12:03:51.478Z,26.92
2023-05-15T12:06:18.435Z,27.95
2023-05-15T12:08:51.553Z,26.83
2023-05-15T12:11:22.120Z,29.48
2023-05-15T12:13:52.260Z,30.92
2023-05-15T12:16:23.051Z,28.42
2023-05-15T12:18:49.789Z,29.80
2023-05-15T12:21:17.055Z,27.95
2023-05-15T12:24:03.333Z,27.73
2023-05-15T12:26:34.276Z,31.02
2023-05-15T12:29:01.202Z,29.75
2023-05-15T12:31:27.996Z,29.85
2023-05-15T12:33:55.815Z,29.08
2023-05-15T12:36:22.490Z,28.48
2023-05-15T12:38:49.349Z,29.13
2023-05-15T12:41:16.127Z,32.72
2023-05-15T12:43:42.685Z,30.60
2023-05-15T12:46:09.626Z,28.02
2023-05-15T12:48:36.365Z,30.33
2023-05-15T12:51:07.485Z,30.15
2023-05-15T12:53:34.457Z,30.55
2023-05-15T12:56:01.321Z,36.00
2023-05-15T12:58:28.236Z,30.17
2023-05-15T13:00:56.838Z,32.25
2023-05-15T13:03:25.062Z,38.53
2023-05-15T13:05:52.191Z,33.85
2023-05-15T13:08:19.198Z,38.13
2023-05-15T13:10:47.355Z,34.30
2023-05-15T13:13:14.283Z,34.63
2023-05-15T13:15:44.107Z,32.42
2023-05-15T13:18:16.364Z,34.53
2023-05-15T13:20:46.895Z,40.60
2023-05-15T13:23:16.127Z,37.00
2023-05-15T13:25:43.455Z,39.50
2023-05-15T13:28:11.406Z,36.17
2023-05-15T13:30:41.425Z,27.95
2023-05-15T13:33:12.302Z,34.15
2023-05-15T13:35:39.745Z,28.27
2023-05-15T13:38:07.622Z,32.22
2023-05-15T13:40:37.419Z,24.92
2023-05-15T13:43:04.079Z,29.17
2023-05-15T13:45:30.713Z,33.72
2023-05-15T13:47:57.402Z,33.00
2023-05-15T13:50:24.218Z,30.88
2023-05-15T13:52:51.094Z,34.08
2023-05-15T13:55:17.659Z,29.73
2023-05-15T13:57:45.254Z,35.28
2023-05-15T14:00:13.642Z,32.55
2023-05-15T14:02:41.698Z,31.75
2023-05-15T14:05:09.918Z,31.30
2023-05-15T14:07:36.916Z,34.58
2023-05-15T14:10:04.393Z,34.22
2023-05-15T14:12:32.271Z,35.78
2023-05-15T14:14:59.764Z,33.70
2023-05-15T14:17:27.822Z,34.50
2023-05-15T14:19:54.603Z,35.65
2023-05-15T14:22:24.560Z,35.38
2023-05-15T14:24:52.259Z,38.13
2023-05-15T14:27:19.130Z,40.00
2023-05-15T14:29:45.985Z,35.97
2023-05-15T14:32:12.653Z,35.22
2023-05-15T14:34:39.334Z,33.17
2023-05-15T14:37:05.865Z,31.27
2023-05-15T14:39:32.812Z,30.48
2023-05-15T14:41:59.420Z,27.10
2023-05-15T14:44:26.002Z,24.55
2023-05-15T14:47:14.803Z,23.10
2023-05-15T14:49:41.331Z,17.50
2023-05-15T14:52:09.611Z,14.90
2023-05-15T14:54:38.744Z,14.63
2023-05-15T14:57:05.951Z,14.95
2023-05-15T14:59:32.515Z,13.25
2023-05-15T15:01:59.091Z,20.88
2023-05-15T15:04:27.967Z,13.27
2023-05-15T15:06:56.987Z,11.73
2023-05-15T15:09:25.467Z,15.18
2023-05-15T15:11:52.950Z,13.98
2023-05-15T15:14:19.499Z,14.27
2023-05-15T15:16:46.446Z,16.38
2023-05-15T15:19:13.906Z,14.77
2023-05-15T15:21:40.605Z,14.02
2023-05-15T15:24:07.255Z,17.02
2023-05-15T15:26:33.941Z,15.25
2023-05-15T15:29:03.256Z,14.88
2023-05-15T15:31:30.613Z,17.20
2023-05-15T15:33:57.971Z,12.10
2023-05-15T15:36:25.255Z,12.38
2023-05-15T15:38:52.275Z,15.35
2023-05-15T15:41:21.070Z,10.80
2023-05-15T15:43:47.814Z,13.80
2023-05-15T15:46:14.400Z,10.48
2023-05-15T15:48:41.025Z,14.93
2023-05-15T15:51:07.587Z,12.18
2023-05-15T15:53:34.811Z,11.77
2023-05-15T15:56:01.580Z,12.02
2023-05-15T15:58:29.859Z,14.45
2023-05-15T16:00:57.409Z,13.60
2023-05-15T16:03:24.256Z,13.05
2023-05-15T16:05:51.680Z,16.33
2023-05-15T16:08:18.399Z,16.25
2023-05-15T16:10:44.965Z,13.98
2023-05-15T16:13:11.698Z,16.25
2023-05-15T16:15:38.269Z,15.32
2023-05-15T16:18:05.000Z,14.05
2023-05-15T16:20:32.963Z,13.57
2023-05-15T16:23:01.520Z,9.75
2023-05-15T16:25:28.105Z,10.15
2023-05-15T16:27:54.643Z,14.63
2023-05-15T16:30:21.153Z,12.07
2023-05-15T16:32:48.453Z,13.25
2023-05-15T16:35:15.313Z,12.73
2023-05-15T16:37:41.934Z,9.07
2023-05-15T16:40:08.831Z,15.27
2023-05-15T16:42:36.637Z,9.70
2023-05-15T16:45:04.400Z,13.13
2023-05-15T16:47:30.958Z,9.18
2023-05-15T16:49:57.554Z,4.80
2023-05-15T16:52:24.382Z,5.55
2023-05-15T16:54:51.271Z,7.32
2023-05-15T16:57:17.859Z,8.82
2023-05-15T16:59:44.505Z,7.30
2023-05-15T17:02:11.169Z,5.68
2023-05-15T17:04:37.796Z,8.43
2023-05-15T17:07:05.020Z,7.60
2023-05-15T17:09:32.678Z,5.15
2023-05-15T17:11:59.708Z,4.32
2023-05-15T17:14:26.557Z,5.07
2023-05-15T17:16:53.177Z,5.25
2023-05-15T17:19:20.002Z,4.78
2023-05-15T17:21:46.680Z,4.03
2023-05-15T17:24:15.785Z,2.53
2023-05-15T17:26:42.342Z,6.90
2023-05-15T17:29:10.785Z,7.38
2023-05-15T17:31:38.834Z,7.20
2023-05-15T17:34:05.482Z,4.68
2023-05-15T17:36:33.612Z,9.80
2023-05-15T17:39:00.573Z,8.50
2023-05-15T17:41:27.194Z,7.43
2023-05-15T17:43:53.769Z,6.60
2023-05-15T17:46:20.628Z,8.95
2023-05-15T17:48:47.444Z,12.00
2023-05-15T17:51:14.004Z,9.05
2023-05-15T17:53:40.659Z,6.55
2023-05-15T17:56:07.279Z,7.95
2023-05-15T17:58:33.885Z,11.50
2023-05-15T18:01:01.394Z,12.07
2023-05-15T18:03:28.200Z,8.15
2023-05-15T18:05:55.096Z,9.35
2023-05-15T18:08:21.864Z,7.90
2023-05-15T18:10:48.391Z,7.53
2023-05-15T18:13:14.895Z,10.02
2023-05-15T18:15:41.492Z,10.25
2023-05-15T18:18:08.351Z,10.77
2023-05-15T18:20:34.984Z,11.60
2023-05-15T18:23:01.511Z,12.45
2023-05-15T18:25:28.325Z,10.55
2023-05-15T18:27:55.165Z,11.48
2023-05-15T18:30:21.865Z,11.38
2023-05-15T18:32:48.441Z,9.23
2023-05-15T18:35:15.009Z,11.48
2023-05-15T18:37:41.561Z,10.05
2023-05-15T18:40:09.055Z,10.65
2023-05-15T18:42:35.643Z,12.15
2023-05-15T18:45:02.277Z,13.63
2023-05-15T18:47:29.165Z,11.85
2023-05-15T18:49:55.894Z,12.77
2023-05-15T18:52:22.742Z,13.15
2023-05-15T18:54:49.380Z,8.90
2023-05-15T18:57:15.920Z,11.50
2023-05-15T18:59:42.538Z,11.98
2023-05-15T19:02:11.978Z,11.43
2023-05-15T19:04:38.573Z,12.45
2023-05-15T19:07:05.708Z,12.18
2023-05-15T19:09:32.534Z,11.50
2023-05-15T19:12:00.172Z,7.65
2023-05-15T19:14:26.886Z,11.35
2023-05-15T19:16:53.408Z,8.85
2023-05-15T19:19:20.401Z,9.93
2023-05-15T19:21:47.494Z,8.98
2023-05-15T19:24:14.034Z,13.27
2023-05-15T19:26:40.515Z,7.05
2023-05-15T19:29:07.040Z,9.20
2023-05-15T19:31:33.751Z,6.63
2023-05-15T19:34:00.933Z,5.28
2023-05-15T19:36:27.495Z,8.50
2023-05-15T19:38:54.108Z,10.50
2023-05-15T19:41:21.613Z,7.47
2023-05-15T19:43:50.539Z,5.95
2023-05-15T19:46:18.263Z,8.80
2023-05-15T19:48:45.263Z,7.88
2023-05-15T19:51:11.914Z,7.65
2023-05-15T19:53:38.399Z,13.05
2023-05-15T19:56:05.659Z,11.75
2023-05-15T19:58:32.492Z,8.70
2023-05-15T20:00:59.061Z,12.90
2023-05-15T20:03:33.211Z,12.45
2023-05-15T20:06:01.494Z,12.30
2023-05-15T20:08:28.794Z,12.93
2023-05-15T20:10:55.438Z,12.70
2023-05-15T20:13:22.475Z,12.60
2023-05-15T20:15:56.977Z,12.45
2023-05-15T20:18:27.956Z,8.52
2023-05-15T20:20:54.691Z,6.25
2023-05-15T20:23:21.491Z,6.68
2023-05-15T20:25:50.065Z,12.00
2023-05-15T20:28:17.767Z,8.63
2023-05-15T20:30:47.134Z,9.98
2023-05-15T20:33:13.863Z,11.93
2023-05-15T20:35:40.470Z,7.50
2023-05-15T20:38:07.003Z,8.63
2023-05-15T20:40:33.516Z,10.20
2023-05-15T20:43:01.221Z,9.02
2023-05-15T20:45:27.874Z,12.52
2023-05-15T20:47:54.440Z,11.18
2023-05-15T20:50:21.369Z,8.13
2023-05-15T20:52:47.985Z,6.22
2023-05-15T20:55:19.367Z,5.10
2023-05-15T20:57:47.633Z,6.38
2023-05-15T21:00:16.671Z,5.47
2023-05-15T21:02:44.530Z,6.82
2023-05-15T21:05:12.018Z,5.60
2023-05-15T21:07:38.875Z,7.90
2023-05-15T21:10:06.040Z,6.63
2023-05-15T21:12:32.744Z,7.63
2023-05-15T21:14:59.346Z,4.93
2023-05-15T21:17:25.900Z,3.33
2023-05-15T21:19:52.817Z,2.83
2023-05-15T21:22:19.379Z,2.25
2023-05-15T21:24:46.272Z,3.60
2023-05-15T21:27:12.874Z,3.78
2023-05-15T21:29:39.444Z,3.53
2023-05-15T21:32:06.562Z,4.20
2023-05-15T21:34:33.164Z,2.25
2023-05-15T21:36:59.673Z,4.68
2023-05-15T21:39:27.424Z,5.25
2023-05-15T21:41:54.024Z,3.38
2023-05-15T21:44:21.266Z,4.15
2023-05-15T21:46:47.955Z,5.00
2023-05-15T21:49:14.542Z,2.38
2023-05-15T21:51:41.194Z,5.57
2023-05-15T21:54:07.692Z,5.22
2023-05-15T21:56:34.233Z,4.85
2023-05-15T21:59:00.831Z,7.00
2023-05-15T22:01:27.476Z,8.13
2023-05-15T22:03:54.096Z,4.60
2023-05-15T22:06:20.744Z,4.70
2023-05-15T22:08:47.251Z,3.67
2023-05-15T22:11:13.849Z,8.60
2023-05-15T22:13:40.431Z,5.53
2023-05-15T22:16:07.045Z,8.05
2023-05-15T22:18:34.881Z,6.57
2023-05-15T22:21:02.951Z,5.82
2023-05-15T22:23:29.774Z,6.97
2023-05-15T22:25:56.321Z,6.25
2023-05-15T22:28:22.868Z,10.13
2023-05-15T22:30:49.559Z,10.95
2023-05-15T22:33:16.114Z,7.57
2023-05-15T22:35:42.636Z,9.43
2023-05-15T22:38:09.631Z,5.65
2023-05-15T22:40:36.316Z,5.25
2023-05-15T22:43:02.892Z,8.93
2023-05-15T22:45:29.500Z,10.85
2023-05-15T22:47:56.192Z,13.52
2023-05-15T22:50:22.826Z,9.68
2023-05-15T22:52:49.386Z,8.93
2023-05-15T22:55:16.001Z,7.85
2023-05-15T22:57:43.601Z,11.20
2023-05-15T23:00:10.732Z,16.27
2023-05-15T23:02:38.411Z,13.57
2023-05-15T23:05:05.388Z,9.38
2023-05-15T23:07:32.087Z,11.77
2023-05-15T23:09:58.870Z,5.60
2023-05-15T23:12:25.441Z,6.97
2023-05-15T23:14:51.981Z,10.18
2023-05-15T23:17:18.528Z,9.73
2023-05-15T23:19:45.044Z,7.13
2023-05-15T23:22:11.784Z,10.75
2023-05-15T23:24:38.294Z,8.98
2023-05-15T23:27:05.585Z,8.88
2023-05-15T23:29:33.824Z,12.60
2023-05-15T23:32:00.628Z,12.32
2023-05-15T23:34:28.540Z,11.18
2023-05-15T23:36:55.068Z,13.77
2023-05-15T23:39:21.616Z,10.23
2023-05-15T23:41:48.131Z,14.82
2023-05-15T23:44:14.693Z,10.25
2023-05-15T23:46:41.270Z,14.73
2023-05-15T23:49:07.934Z,16.15
2023-05-15T23:51:34.592Z,10.07
2023-05-15T23:54:01.101Z,12.93
2023-05-15T23:56:27.661Z,13.52
2023-05-15T23:58:54.249Z,14.90
